Relevés horaires Charleroi (Belgique)


Relevés horaires à Charleroi - Mercredi 25 Août 2021
Heure UTC1 Température [°C] Vent [km/h] Hum. [%] Pres.4 [hPa] Visi. [Km] Nébu. [octa] Préc.5 [mm] Cond.
2m. Res. Ros. Dir.2 Vit. Moy. Raf.3
23:00 13.1 13.1 11.6 NO 3.7 5.6 9.3 91 1020.1(-0.6/3h) 20 3/8 -- --
22:00 13.8 13.8 11.9 N 5.6 5.6 9.3 88 1020.4(-0.1/3h) 20 2/8 -- --
21:00 14.5 14.5 11.9 NNO 5.6 5.6 11.1 84 1020.4(0.1/3h) 20 2/8 -- --
20:00 15.5 15.5 11.4 NNO 5.6 5.6 11.1 77 1020.5(0.0/3h) 20 2/8 -- --
19:00 17.3 17.3 12.7 NNO 3.7 5.6 11.1 74 1020.2(-0.6/3h) 30 2/8 -- --
18:00 18.8 18.8 10.2 N 5.6 9.3 14.8 57 1019.9(-1.2/3h) 30 1/8 0/12h
--
17:00 20.2 20.2 9.3 N 7.4 7.4 13.0 49 1020.2(-1.3/3h) 30 1/8 -- --
16:00 20.7 20.7 9.3 N 7.4 9.3 14.8 48 1020.6(-1.7/3h) 30 1/8 -- --
15:00 21.0 21.0 9.1 NNE 7.4 9.3 14.8 46 1021(-1.5/3h) 30 1/8 -- --
14:00 21.0 21.0 9.1 N 5.6 7.4 11.1 46 1021.4(-1.9/3h) 30 1/8 -- --
13:00 20.7 20.7 9.1 ENE 7.4 9.3 14.8 47 1022.3(-1.5/3h) 30 1/8 -- --
12:00 20.3 20.3 9.6 NE 7.4 9.3 14.8 50 1022.6(-1.4/3h) 30 1/8 0/6h
--
11:00 19.7 19.7 10.8 NE 7.4 9.3 14.8 56 1023.4(-0.6/3h) 30 3/8 -- --
10:00 18.6 18.6 11.2 NE 7.4 7.4 11.1 62 1023.9(0.0/3h) 20 3/8 -- --
09:00 17.4 17.4 11.9 NE 5.6 5.6 9.3 70 1024.3(-0.1/3h) 20 3/8 -- --
08:00 14.8 14.8 10.8 ENE 5.6 5.6 9.3 77 1024.4(0.0/3h) 20 3/8 -- --
07:00 12.9 12.9 10.5 NE 5.6 5.6 7.4 85 1024.4(0.0/3h) 20 4/8 -- --
06:00 10.9 10.9 9.6 NNE 3.7 5.6 7.4 92 1024.7(-0.4/3h) 20 1/8 0/12h
--
05:00 10.2 10.2 8.9 NNE 3.7 5.6 5.6 92 1024.7(-0.8/3h) 20 1/8 -- --
04:00 10.0 9.6 8.8 N 5.6 5.6 5.6 92 1024.8(-0.9/3h) 20 1/8 -- --
03:00 10.5 10.5 9.1 N 3.7 5.6 7.4 91 1025.2(-1.0/3h) 20 1/8 -- --
02:00 11.0 11.0 9.2 N 3.7 5.6 7.4 89 1025.4(-1.1/3h) 20 1/8 -- --
01:00 11.3 11.3 9.3 N 3.7 3.7 5.6 87 1025.7(-0.7/3h) 20 1/8 -- --
00:00 11.8 11.8 9.3 NNE 3.7 11.1 13.0 85 1026.1(-0.4/3h) 20 1/8 0/6h
0/24h
--

1 Coordinated Universal Time. Actuellement il est 23:00 locale et 21:00 UTC.

2 Le vent souffle depuis la direction indiquée vers la direction oposée.

3 Les rafales max. sont disponible 40 min après l'heure du relevé.

4 Pour les stations d'altitude (plus de 600m) le géopotentiel du niveau le plus proche de la pression obligatoire est indiqué.

5 Les stations disposant d'un diffuseur peuvent indiquer "trace". Cela signifie que des précipitations ont touchés le sol mais que la quantité est inférieure à 0.1 mm.

Récapitulatif de la journée
Température [°C] Vent [km/h] Ensoleillement4 [h] Precipitations totale5 [mm] Pression [Hpa]
Min1 Max.2 Moy.3 Max. Min Max.
9.5 21.7 6.9 14.8 0 h 0 min 0 1019.9 1026.1

1 Température minimale relevée entre 18:00 UTC la veille et 18:00 UTC le jour donné.

2 Température maximale relevée entre 06:00 UTC le jour donné et 06:00 UTC le lendemain.

3 Vent moyen de la journée basé sur les relevés horaires.

4 Ensoleillement en heures relevé entre 06:00 UTC la veille et 06:00 UTC le jour donné.

5 Précipitations totales tombées entre 06:00 UTC la jour donné et 06:00 UTC le lendemain.

Graphiques horaires